Time;durP1;ratioP1;P1;durP2;ratioP2;P2;SDS_P1;SDS_P2;PMS_P1;PMS_P2;Temp;Humidity;BMP_temperature;BMP_pressure;BME280_temperature;BME280_humidity;BME280_pressure;Samples;Min_cycle;Max_cycle;Signal;HPM_P1;HPM_P2
2023/12/13 00:01:45;;;;;;;0.05;0.05;;;;;;;;;;4935194;29;20028;-86
2023/12/13 00:04:11;;;;;;;0.10;0.10;;;8.80;99.90;;;;;;4938712;29;20400;-87
2023/12/13 00:06:37;;;;;;;0.00;0.00;;;8.70;99.90;;;;;;4933021;28;20032;-85
2023/12/13 00:09:03;;;;;;;0.10;0.10;;;;;;;;;;4934554;29;20423;-87
2023/12/13 00:11:29;;;;;;;0.05;0.05;;;;;;;;;;4931583;29;20047;-85
2023/12/13 00:13:55;;;;;;;0.10;0.10;;;;;;;;;;4932914;29;20063;-87
2023/12/13 00:16:21;;;;;;;0.00;0.00;;;;;;;;;;4933382;29;20059;-86
2023/12/13 00:18:47;;;;;;;0.00;0.00;;;;;;;;;;4937379;28;20099;-86
2023/12/13 00:21:15;;;;;;;0.00;0.00;;;;;;;;;;4941505;29;20070;-85
2023/12/13 00:23:42;;;;;;;0.08;0.08;;;;;;;;;;4929993;29;20031;-87
2023/12/13 00:26:14;;;;;;;0.00;0.00;;;8.10;99.90;;;;;;4927045;29;20086;-86
2023/12/13 00:28:40;;;;;;;0.00;0.00;;;;;;;;;;4935572;29;20042;-84
2023/12/13 00:31:06;;;;;;;0.08;0.08;;;;;;;;;;4937036;29;20183;-87
2023/12/13 00:33:33;;;;;;;0.10;0.10;;;;;;;;;;4930533;29;20122;-85
2023/12/13 00:35:59;;;;;;;0.10;0.10;;;;;;;;;;4933391;29;20028;-87
2023/12/13 00:38:25;;;;;;;0.05;0.05;;;;;;;;;;4934518;29;20027;-86
2023/12/13 00:40:50;;;;;;;0.10;0.10;;;8.20;99.90;;;;;;4939073;28;20054;-86
2023/12/13 00:43:16;;;;;;;0.05;0.05;;;8.20;99.90;;;;;;4929609;29;20031;-86
2023/12/13 00:45:42;;;;;;;0.00;0.00;;;;;;;;;;4936824;29;20032;-87
2023/12/13 00:48:08;;;;;;;0.05;0.05;;;;;;;;;;4936009;29;20034;-86
2023/12/13 00:50:34;;;;;;;0.10;0.10;;;;;;;;;;4931355;29;20067;-87
2023/12/13 00:53:00;;;;;;;0.10;0.10;;;;;;;;;;4936506;29;20053;-87
2023/12/13 00:55:26;;;;;;;0.00;0.00;;;;;;;;;;4931775;29;20038;-86
2023/12/13 00:57:52;;;;;;;0.10;0.10;;;;;;;;;;4931087;29;20115;-88
2023/12/13 01:00:18;;;;;;;0.10;0.10;;;;;;;;;;4931813;28;20032;-87
2023/12/13 01:02:44;;;;;;;0.10;0.10;;;;;;;;;;4934482;29;20044;-87
2023/12/13 01:05:10;;;;;;;0.00;0.00;;;;;;;;;;4935671;29;20048;-86
2023/12/13 01:07:36;;;;;;;0.10;0.10;;;8.10;99.90;;;;;;4931650;29;20036;-86
2023/12/13 01:10:01;;;;;;;0.10;0.10;;;8.10;99.90;;;;;;4934068;29;20207;-87
2023/12/13 01:12:27;;;;;;;0.00;0.00;;;;;;;;;;4938035;29;20039;-87
2023/12/13 01:14:53;;;;;;;0.10;0.10;;;;;;;;;;4922436;29;20070;-86
2023/12/13 01:17:20;;;;;;;0.10;0.10;;;;;;;;;;4931798;29;20415;-86
2023/12/13 01:19:46;;;;;;;0.10;0.10;;;;;;;;;;4925695;29;20466;-85
2023/12/13 01:22:11;;;;;;;0.10;0.10;;;;;;;;;;4936176;29;20023;-88
2023/12/13 01:24:37;;;;;;;0.00;0.00;;;8.30;99.90;;;;;;4931082;29;20062;-86
2023/12/13 01:27:04;;;;;;;0.00;0.00;;;8.40;99.90;;;;;;4935229;28;20040;-87
2023/12/13 01:29:30;;;;;;;0.10;0.10;;;8.50;99.90;;;;;;4925956;29;20053;-87
2023/12/13 01:31:56;;;;;;;0.10;0.10;;;;;;;;;;4931604;29;20023;-86
2023/12/13 01:34:22;;;;;;;0.00;0.00;;;;;;;;;;4930163;29;20051;-88
2023/12/13 01:36:48;;;;;;;0.10;0.10;;;;;;;;;;4931583;29;20499;-87
2023/12/13 01:39:17;;;;;;;0.05;0.05;;;;;;;;;;4928591;29;20163;-88
2023/12/13 01:41:43;;;;;;;0.00;0.00;;;;;;;;;;4934876;29;20035;-87
2023/12/13 01:44:10;;;;;;;0.05;0.05;;;;;;;;;;4931881;29;20453;-88
2023/12/13 01:46:36;;;;;;;0.10;0.10;;;;;;;;;;4930393;29;20151;-88
2023/12/13 01:49:02;;;;;;;0.00;0.00;;;;;;;;;;4931974;28;20038;-85
2023/12/13 01:51:28;;;;;;;0.00;0.00;;;8.50;99.90;;;;;;4928486;29;20102;-87
2023/12/13 01:53:54;;;;;;;0.00;0.00;;;;;;;;;;4928053;29;20041;-88
2023/12/13 01:56:20;;;;;;;0.00;0.00;;;;;;;;;;4930219;29;20058;-87
2023/12/13 01:58:47;;;;;;;0.10;0.10;;;;;;;;;;4929607;29;20027;-86
2023/12/13 02:01:13;;;;;;;0.00;0.00;;;;;;;;;;4924463;29;20035;-87
2023/12/13 02:03:39;;;;;;;0.00;0.00;;;;;;;;;;4926387;29;20473;-87
2023/12/13 02:06:05;;;;;;;0.00;0.00;;;;;;;;;;4925756;29;20083;-89
2023/12/13 02:08:31;;;;;;;0.10;0.10;;;;;;;;;;4930965;29;20039;-88
2023/12/13 02:10:58;;;;;;;0.00;0.00;;;8.60;99.90;;;;;;4930817;29;20031;-88
2023/12/13 02:13:24;;;;;;;0.10;0.10;;;;;;;;;;4932829;29;20031;-86
2023/12/13 02:15:50;;;;;;;0.00;0.00;;;;;;;;;;4931690;29;20039;-86
2023/12/13 02:18:16;;;;;;;0.00;0.00;;;;;;;;;;4936277;29;20043;-86
2023/12/13 02:20:42;;;;;;;0.00;0.00;;;8.60;99.90;;;;;;4935253;29;20039;-86
2023/12/13 02:23:09;;;;;;;0.10;0.10;;;;;;;;;;4934070;29;20031;-86
2023/12/13 02:25:59;;;;;;;0.10;0.10;;;8.60;99.90;;;;;;4940597;28;20074;-87
2023/12/13 02:28:26;;;;;;;0.03;0.03;;;8.60;99.90;;;;;;4935238;29;20393;-87
2023/12/13 02:30:54;;;;;;;0.05;0.05;;;8.50;99.90;;;;;;4942693;29;20110;-87
2023/12/13 02:33:24;;;;;;;0.00;0.00;;;8.50;99.90;;;;;;4937137;28;20501;-88
2023/12/13 02:35:55;;;;;;;0.10;0.10;;;8.50;99.90;;;;;;4921903;29;20040;-87
2023/12/13 02:38:21;;;;;;;0.10;0.10;;;;;;;;;;4933034;29;20035;-86
2023/12/13 02:40:47;;;;;;;0.00;0.00;;;;;;;;;;4935732;29;20388;-87
2023/12/13 02:43:12;;;;;;;0.10;0.10;;;8.70;99.90;;;;;;4938049;29;20418;-87
2023/12/13 02:45:38;;;;;;;0.05;0.05;;;;;;;;;;4936963;29;20075;-86
2023/12/13 02:48:04;;;;;;;0.10;0.10;;;8.70;99.90;;;;;;4942583;29;20023;-87
2023/12/13 02:50:30;;;;;;;0.03;0.03;;;8.70;99.90;;;;;;4926819;29;20043;-87
2023/12/13 02:52:56;;;;;;;0.10;0.10;;;;;;;;;;4938665;29;20031;-86
2023/12/13 02:55:22;;;;;;;0.10;0.10;;;;;;;;;;4936345;29;20036;-87
2023/12/13 02:57:48;;;;;;;0.10;0.10;;;;;;;;;;4938481;29;20039;-88
2023/12/13 03:00:14;;;;;;;0.00;0.00;;;;;;;;;;4932373;29;20037;-88
2023/12/13 03:02:40;;;;;;;0.00;0.00;;;;;;;;;;4935740;29;20127;-85
2023/12/13 03:05:06;;;;;;;0.00;0.00;;;8.60;99.90;;;;;;4935066;29;20031;-86
2023/12/13 03:07:32;;;;;;;0.03;0.03;;;;;;;;;;4931035;29;20040;-87
2023/12/13 03:09:58;;;;;;;0.00;0.00;;;;;;;;;;4937445;29;20039;-87
2023/12/13 03:12:24;;;;;;;0.05;0.05;;;8.70;99.90;;;;;;4933032;29;20042;-86
2023/12/13 03:14:49;;;;;;;0.00;0.00;;;8.70;99.90;;;;;;4938846;29;20070;-87
2023/12/13 03:17:15;;;;;;;0.00;0.00;;;;;;;;;;4933558;28;20043;-86
2023/12/13 03:19:41;;;;;;;0.00;0.00;;;;;;;;;;4934421;29;20039;-86
2023/12/13 03:22:07;;;;;;;0.10;0.10;;;;;;;;;;4936946;29;20379;-86
2023/12/13 03:24:33;;;;;;;0.10;0.10;;;;;;;;;;4931892;29;20038;-87
2023/12/13 03:26:59;;;;;;;0.10;0.10;;;;;;;;;;4935230;29;20457;-87
2023/12/13 03:29:25;;;;;;;0.00;0.00;;;;;;;;;;4930605;29;20028;-87
2023/12/13 03:31:51;;;;;;;0.00;0.00;;;;;;;;;;4933409;29;20090;-87
2023/12/13 03:34:16;;;;;;;0.10;0.10;;;8.50;99.90;;;;;;4936147;29;20079;-87
2023/12/13 03:36:42;;;;;;;0.00;0.00;;;;;;;;;;4931474;29;20023;-85
2023/12/13 03:39:08;;;;;;;0.10;0.10;;;;;;;;;;4936741;29;20544;-86
2023/12/13 03:41:34;;;;;;;0.10;0.10;;;8.60;99.90;;;;;;4928008;29;20024;-87
2023/12/13 03:44:00;;;;;;;0.10;0.10;;;;;;;;;;4938073;29;20046;-87
2023/12/13 03:46:26;;;;;;;0.10;0.10;;;;;;;;;;4932981;29;20485;-87
2023/12/13 03:48:52;;;;;;;0.10;0.10;;;;;;;;;;4937856;29;20063;-87
2023/12/13 03:51:18;;;;;;;0.10;0.10;;;;;;;;;;4936068;29;20115;-87
2023/12/13 03:53:43;;;;;;;0.10;0.10;;;8.50;99.90;;;;;;4936573;28;20039;-86
2023/12/13 03:56:10;;;;;;;0.00;0.00;;;8.40;99.90;;;;;;4926256;29;20019;-87
2023/12/13 03:58:36;;;;;;;0.00;0.00;;;;;;;;;;4937518;28;20031;-87
2023/12/13 04:01:02;;;;;;;0.10;0.10;;;;;;;;;;4939152;29;20539;-87
2023/12/13 04:03:28;;;;;;;0.00;0.00;;;;;;;;;;4934464;29;20079;-88
2023/12/13 04:05:54;;;;;;;0.10;0.10;;;;;;;;;;4934858;29;20031;-87
2023/12/13 04:08:20;;;;;;;0.10;0.10;;;;;;;;;;4936900;29;20515;-87
2023/12/13 04:10:46;;;;;;;0.00;0.00;;;;;;;;;;4931743;29;20106;-86
2023/12/13 04:13:11;;;;;;;0.10;0.10;;;8.50;99.90;;;;;;4935721;29;20139;-87
2023/12/13 04:15:38;;;;;;;0.10;0.10;;;;;;;;;;4935987;29;20062;-87
2023/12/13 04:18:04;;;;;;;0.10;0.10;;;;;;;;;;4935080;29;20497;-87
2023/12/13 04:20:30;;;;;;;0.10;0.10;;;;;;;;;;4932853;28;20125;-87
2023/12/13 10:07:14;;;;;;;0.00;0.00;;;;;;;;;;4928313;29;20050;-90
2023/12/13 10:09:41;;;;;;;0.00;0.00;;;;;;;;;;4932369;29;20114;-94
2023/12/13 10:12:07;;;;;;;0.10;0.10;;;;;;;;;;4944689;29;20055;-90
2023/12/13 10:14:35;;;;;;;0.00;0.00;;;9.70;99.90;;;;;;4942244;28;20032;-93
2023/12/13 10:17:01;;;;;;;0.00;0.00;;;;;;;;;;4929573;29;20051;-91
2023/12/13 10:19:27;;;;;;;0.10;0.10;;;;;;;;;;4948402;28;20063;-94
2023/12/13 10:21:53;;;;;;;0.00;0.00;;;;;;;;;;4949125;28;20047;-94
2023/12/13 10:24:20;;;;;;;0.00;0.00;;;9.70;99.90;;;;;;4935580;28;20021;-94
2023/12/13 10:26:47;;;;;;;0.00;0.00;;;;;;;;;;4935249;29;20121;-94
2023/12/13 10:29:37;;;;;;;0.00;0.00;;;9.70;99.90;;;;;;4933445;28;20019;-93
2023/12/13 10:32:03;;;;;;;0.00;0.00;;;;;;;;;;4940364;28;20027;-93
2023/12/13 10:34:29;;;;;;;0.00;0.00;;;;;;;;;;4936417;29;20021;-95
2023/12/13 10:36:56;;;;;;;0.00;0.00;;;;;;;;;;4954238;28;20109;-94
2023/12/13 10:39:24;;;;;;;0.00;0.00;;;9.80;99.90;;;;;;4942301;28;20147;-94
2023/12/13 10:41:55;;;;;;;0.00;0.00;;;9.80;99.90;;;;;;4940619;29;20058;-95
2023/12/13 10:44:22;;;;;;;0.00;0.00;;;9.80;99.90;;;;;;4938894;28;20036;-94
2023/12/13 10:46:56;;;;;;;0.00;0.00;;;9.80;99.90;;;;;;4951567;28;20040;-94
2023/12/13 10:49:22;;;;;;;0.00;0.00;;;;;;;;;;4940086;28;20035;-93
2023/12/13 10:51:49;;;;;;;0.00;0.00;;;;;;;;;;4939596;28;20059;-94
2023/12/13 10:54:15;;;;;;;0.00;0.00;;;;;;;;;;4936689;28;20033;-94
2023/12/13 10:56:41;;;;;;;0.00;0.00;;;;;;;;;;4954801;28;20043;-94
2023/12/13 10:59:09;;;;;;;0.00;0.00;;;;;;;;;;4944979;28;20044;-92
2023/12/13 11:01:35;;;;;;;0.00;0.00;;;;;;;;;;4942179;28;20087;-95
2023/12/13 11:04:08;;;;;;;0.00;0.00;;;;;;;;;;4940981;29;20028;-95
2023/12/13 11:06:37;;;;;;;0.00;0.00;;;9.60;99.90;;;;;;4930530;29;20032;-93
2023/12/13 11:09:15;;;;;;;0.00;0.00;;;9.60;99.90;;;;;;4936336;29;20020;-95
2023/12/13 11:11:42;;;;;;;0.00;0.00;;;;;;;;;;4939022;28;20025;-93
2023/12/13 11:14:09;;;;;;;0.00;0.00;;;;;;;;;;4943907;29;20024;-93
2023/12/13 11:16:49;;;;;;;0.00;0.00;;;9.70;99.90;;;;;;4933983;28;20036;-94
2023/12/13 11:19:25;;;;;;;0.00;0.00;;;9.70;99.90;;;;;;4936808;29;20012;-92
2023/12/13 11:21:51;;;;;;;0.00;0.00;;;;;;;;;;4941190;29;20028;-93
2023/12/13 11:24:25;;;;;;;0.00;0.00;;;;;;;;;;4941566;29;20031;-94
2023/12/13 11:26:53;;;;;;;0.00;0.00;;;;;;;;;;4951446;28;20012;-94
2023/12/13 11:29:18;;;;;;;0.00;0.00;;;;;;;;;;4938492;29;20039;-93
2023/12/13 11:31:48;;;;;;;0.00;0.00;;;;;;;;;;4954773;28;20043;-95
2023/12/13 11:34:14;;;;;;;0.00;0.00;;;;;;;;;;4941341;29;20020;-95
2023/12/13 11:36:42;;;;;;;0.00;0.00;;;;;;;;;;4951783;28;20039;-94
2023/12/13 11:39:08;;;;;;;0.00;0.00;;;;;;;;;;4936843;29;20008;-95
2023/12/13 11:41:36;;;;;;;0.00;0.00;;;9.70;99.90;;;;;;4940440;29;20035;-94
2023/12/13 11:44:03;;;;;;;0.00;0.00;;;;;;;;;;4938481;28;20041;-96
2023/12/13 11:46:30;;;;;;;0.00;0.00;;;;;;;;;;4939385;29;20040;-95
2023/12/13 11:48:56;;;;;;;0.10;0.10;;;;;;;;;;4941127;28;20031;-96
2023/12/13 11:51:22;;;;;;;0.00;0.00;;;;;;;;;;4937338;29;20024;-93
2023/12/13 11:53:51;;;;;;;0.00;0.00;;;;;;;;;;4935724;29;20056;-93
2023/12/13 11:56:18;;;;;;;0.00;0.00;;;;;;;;;;4952498;29;20091;-95
2023/12/13 11:58:44;;;;;;;0.00;0.00;;;;;;;;;;4939255;28;20020;-95
2023/12/13 12:01:13;;;;;;;0.00;0.00;;;;;;;;;;4937255;28;20020;-94
2023/12/13 12:03:41;;;;;;;0.00;0.00;;;;;;;;;;4937559;29;20024;-93
2023/12/13 12:06:15;;;;;;;0.00;0.00;;;10.50;99.90;;;;;;4945420;29;20260;-94
2023/12/13 12:08:41;;;;;;;0.00;0.00;;;;;;;;;;4935062;29;20052;-93
2023/12/13 12:11:08;;;;;;;0.00;0.00;;;;;;;;;;4933529;29;20055;-93
2023/12/13 12:13:34;;;;;;;0.00;0.00;;;;;;;;;;4937853;29;20084;-94
2023/12/13 12:16:00;;;;;;;0.00;0.00;;;10.70;99.90;;;;;;4948354;29;20036;-93
2023/12/13 12:18:26;;;;;;;0.00;0.00;;;;;;;;;;4936525;29;20024;-95
2023/12/13 12:20:52;;;;;;;0.00;0.00;;;;;;;;;;4933767;29;20059;-95
2023/12/13 12:23:18;;;;;;;0.00;0.00;;;;;;;;;;4942809;28;20020;-94
2023/12/13 12:25:44;;;;;;;0.00;0.00;;;;;;;;;;4947473;28;20020;-96
2023/12/13 12:28:11;;;;;;;0.00;0.00;;;;;;;;;;4937870;29;20020;-95
2023/12/13 12:30:39;;;;;;;0.00;0.00;;;;;;;;;;4935135;29;20032;-93
2023/12/13 12:33:05;;;;;;;0.00;0.00;;;;;;;;;;4947289;29;20021;-94
2023/12/13 12:35:31;;;;;;;0.00;0.00;;;;;;;;;;4932021;29;20068;-94
2023/12/13 12:37:57;;;;;;;0.00;0.00;;;;;;;;;;4929491;29;20032;-94
2023/12/13 12:40:23;;;;;;;0.00;0.00;;;;;;;;;;4930504;29;20040;-93
2023/12/13 12:42:58;;;;;;;0.00;0.00;;;;;;;;;;4933455;29;20100;-95
2023/12/13 12:45:40;;;;;;;0.00;0.00;;;;;;;;;;4948955;29;20027;-94
2023/12/13 12:48:06;;;;;;;0.00;0.00;;;;;;;;;;4952306;29;20081;-96
2023/12/13 12:50:32;;;;;;;0.00;0.00;;;;;;;;;;4933438;29;20027;-95
2023/12/13 12:52:59;;;;;;;0.00;0.00;;;;;;;;;;4946630;29;20036;-93
2023/12/13 12:55:25;;;;;;;0.10;0.10;;;;;;;;;;4925317;29;20043;-94
2023/12/13 13:04:25;;;;;;;0.00;0.00;;;;;;;;;;4891897;29;20062;-93
2023/12/13 13:06:51;;;;;;;0.00;0.00;;;;;;;;;;4876207;29;20064;-93
2023/12/13 13:13:19;;;;;;;0.00;0.00;;;10.70;99.90;;;;;;4834747;29;20041;-93
2023/12/13 13:20:50;;;;;;;0.00;0.00;;;10.80;99.90;;;;;;4911275;29;20465;-88
2023/12/13 13:23:15;;;;;;;0.00;0.00;;;10.70;99.90;;;;;;4908213;29;20035;-87
2023/12/13 13:25:41;;;;;;;0.00;0.00;;;10.60;99.90;;;;;;4909365;29;20032;-88
2023/12/13 13:28:06;;;;;;;0.00;0.00;;;10.50;99.90;;;;;;4911883;29;20210;-86
2023/12/13 13:30:32;;;;;;;0.00;0.00;;;;;;;;;;4913864;29;20038;-87
2023/12/13 13:51:29;;;;;;;0.00;0.00;;;10.10;99.90;;;;;;4933073;29;20063;-93
2023/12/13 13:53:55;;;;;;;0.00;0.00;;;;;;;;;;4937758;29;20036;-94
2023/12/13 13:56:21;;;;;;;0.00;0.00;;;;;;;;;;4932650;28;20052;-91
2023/12/13 13:58:48;;;;;;;0.00;0.00;;;;;;;;;;4935079;29;20039;-91
2023/12/13 14:01:15;;;;;;;0.00;0.00;;;;;;;;;;4936982;29;20333;-94
2023/12/13 14:03:41;;;;;;;0.00;0.00;;;;;;;;;;4936293;29;20013;-94
2023/12/13 14:06:07;;;;;;;0.00;0.00;;;;;;;;;;4937958;29;20013;-93
2023/12/13 14:08:34;;;;;;;0.00;0.00;;;;;;;;;;4934220;29;20032;-91
2023/12/13 14:11:00;;;;;;;0.00;0.00;;;;;;;;;;4933443;29;20012;-94
2023/12/13 14:13:26;;;;;;;0.00;0.00;;;;;;;;;;4938487;29;20087;-95
2023/12/13 14:15:52;;;;;;;0.00;0.00;;;;;;;;;;4937377;29;20024;-94
2023/12/13 14:18:20;;;;;;;0.00;0.00;;;;;;;;;;4937869;29;20058;-95
2023/12/13 14:20:46;;;;;;;0.00;0.00;;;;;;;;;;4938320;29;20070;-94
2023/12/13 14:23:12;;;;;;;0.00;0.00;;;;;;;;;;4938022;29;20032;-93
2023/12/13 14:25:38;;;;;;;0.00;0.00;;;;;;;;;;4936915;29;20020;-92
2023/12/13 14:28:05;;;;;;;0.00;0.00;;;;;;;;;;4932536;29;20036;-92
2023/12/13 14:30:30;;;;;;;0.00;0.00;;;;;;;;;;4935725;29;20127;-93
2023/12/13 14:32:57;;;;;;;0.00;0.00;;;;;;;;;;4934079;29;20016;-93
2023/12/13 14:35:24;;;;;;;0.00;0.00;;;;;;;;;;4933416;29;20044;-94
2023/12/13 14:37:50;;;;;;;0.00;0.00;;;;;;;;;;4933393;29;20060;-91
2023/12/13 14:40:17;;;;;;;0.00;0.00;;;;;;;;;;4932981;29;20107;-91
2023/12/13 14:42:46;;;;;;;0.00;0.00;;;9.50;99.90;;;;;;4932224;29;20063;-90
2023/12/13 14:45:15;;;;;;;0.00;0.00;;;;;;;;;;4938331;28;20040;-92
2023/12/13 14:47:42;;;;;;;0.00;0.00;;;;;;;;;;4937102;29;20050;-91
2023/12/13 14:50:08;;;;;;;0.00;0.00;;;;;;;;;;4936353;29;20053;-93
2023/12/13 14:52:34;;;;;;;0.00;0.00;;;;;;;;;;4938068;29;20016;-94
2023/12/13 14:55:00;;;;;;;0.00;0.00;;;;;;;;;;4936083;29;20032;-90
2023/12/13 14:57:26;;;;;;;0.00;0.00;;;;;;;;;;4934682;29;20040;-93
2023/12/13 14:59:52;;;;;;;0.00;0.00;;;;;;;;;;4933598;29;20061;-93
2023/12/13 15:02:19;;;;;;;0.00;0.00;;;;;;;;;;4935633;29;20039;-95
2023/12/13 15:04:45;;;;;;;0.00;0.00;;;;;;;;;;4937792;29;20032;-94
2023/12/13 15:07:13;;;;;;;0.00;0.00;;;;;;;;;;4936617;29;20472;-92
2023/12/13 15:09:40;;;;;;;0.00;0.00;;;;;;;;;;4933947;29;20009;-95
2023/12/13 15:12:06;;;;;;;0.00;0.00;;;;;;;;;;4939375;28;20075;-93
2023/12/13 15:14:32;;;;;;;0.00;0.00;;;;;;;;;;4936370;29;20016;-93
2023/12/13 15:16:58;;;;;;;0.00;0.00;;;;;;;;;;4934338;29;20035;-93
2023/12/13 15:19:24;;;;;;;0.00;0.00;;;;;;;;;;4940866;29;20028;-93
2023/12/13 15:21:50;;;;;;;0.00;0.00;;;;;;;;;;4940472;29;20076;-93
2023/12/13 15:24:16;;;;;;;0.00;0.00;;;;;;;;;;4941325;29;20021;-93
2023/12/13 15:26:43;;;;;;;0.00;0.00;;;9.10;99.90;;;;;;4933333;29;20056;-92
2023/12/13 15:29:09;;;;;;;0.00;0.00;;;;;;;;;;4931589;29;20020;-90
2023/12/13 15:31:35;;;;;;;0.00;0.00;;;;;;;;;;4923145;29;20032;-91
2023/12/13 15:34:01;;;;;;;0.00;0.00;;;;;;;;;;4923278;29;20062;-92
2023/12/13 15:36:27;;;;;;;0.00;0.00;;;;;;;;;;4928396;29;20032;-93
2023/12/13 15:38:53;;;;;;;0.00;0.00;;;;;;;;;;4927415;29;20091;-92
2023/12/13 15:41:19;;;;;;;0.00;0.00;;;;;;;;;;4927941;29;20036;-92
2023/12/13 15:43:45;;;;;;;0.00;0.00;;;;;;;;;;4927228;29;20032;-92
2023/12/13 15:46:11;;;;;;;0.00;0.00;;;;;;;;;;4927562;29;20032;-92
2023/12/13 15:48:37;;;;;;;0.00;0.00;;;;;;;;;;4924095;29;20032;-92
2023/12/13 15:51:03;;;;;;;0.00;0.00;;;;;;;;;;4926099;29;20046;-91
2023/12/13 15:53:29;;;;;;;0.00;0.00;;;;;;;;;;4925750;29;20032;-92
2023/12/13 15:55:55;;;;;;;0.00;0.00;;;;;;;;;;4924816;29;20178;-91
2023/12/13 15:58:21;;;;;;;0.00;0.00;;;;;;;;;;4920592;29;20028;-93
2023/12/13 16:00:47;;;;;;;0.00;0.00;;;;;;;;;;4921165;29;20025;-92
2023/12/13 16:03:13;;;;;;;0.00;0.00;;;;;;;;;;4925227;29;20039;-91
2023/12/13 16:05:39;;;;;;;0.00;0.00;;;;;;;;;;4923512;29;20511;-91
2023/12/13 16:08:06;;;;;;;0.00;0.00;;;;;;;;;;4926753;29;20030;-90
2023/12/13 16:10:32;;;;;;;0.00;0.00;;;;;;;;;;4922000;29;20024;-91
2023/12/13 16:12:58;;;;;;;0.00;0.00;;;;;;;;;;4923992;29;20027;-88
2023/12/13 16:15:25;;;;;;;0.00;0.00;;;;;;;;;;4923921;29;20178;-94
2023/12/13 16:17:51;;;;;;;0.00;0.00;;;;;;;;;;4921108;29;20025;-94
2023/12/13 16:20:18;;;;;;;0.00;0.00;;;;;;;;;;4919640;29;21078;-91
2023/12/13 16:22:44;;;;;;;0.00;0.00;;;;;;;;;;4921396;29;20028;-92
2023/12/13 16:25:10;;;;;;;0.00;0.00;;;;;;;;;;4919129;29;20036;-91
2023/12/13 16:27:36;;;;;;;0.00;0.00;;;;;;;;;;4927968;29;20056;-93
2023/12/13 16:30:02;;;;;;;0.00;0.00;;;;;;;;;;4932114;29;20532;-94
2023/12/13 16:32:28;;;;;;;0.03;0.03;;;;;;;;;;4928942;29;20091;-93
2023/12/13 16:34:54;;;;;;;0.00;0.00;;;;;;;;;;4927038;29;20044;-93
2023/12/13 16:37:22;;;;;;;0.00;0.00;;;;;;;;;;4931157;29;20052;-93
2023/12/13 16:39:48;;;;;;;0.00;0.00;;;;;;;;;;4935688;29;20072;-92
2023/12/13 16:42:18;;;;;;;0.00;0.00;;;;;;;;;;4936154;29;20024;-92
2023/12/13 16:44:44;;;;;;;0.00;0.00;;;;;;;;;;4934753;29;20032;-93
2023/12/13 16:47:10;;;;;;;0.00;0.00;;;;;;;;;;4938281;29;20027;-92
2023/12/13 16:49:36;;;;;;;0.00;0.00;;;;;;;;;;4931125;29;20421;-94
2023/12/13 16:52:02;;;;;;;0.00;0.00;;;;;;;;;;4929902;29;20036;-92
2023/12/13 16:54:28;;;;;;;0.00;0.00;;;;;;;;;;4935938;29;20123;-93
2023/12/13 16:56:54;;;;;;;0.00;0.00;;;;;;;;;;4934774;29;20036;-92
2023/12/13 16:59:20;;;;;;;0.00;0.00;;;;;;;;;;4937902;29;20055;-93
2023/12/13 17:01:46;;;;;;;0.00;0.00;;;;;;;;;;4938864;29;20028;-93
2023/12/13 17:04:12;;;;;;;0.00;0.00;;;;;;;;;;4933455;29;20072;-93
2023/12/13 17:06:38;;;;;;;0.00;0.00;;;;;;;;;;4932450;29;20087;-93
2023/12/13 17:09:06;;;;;;;0.00;0.00;;;;;;;;;;4937236;29;20055;-92
2023/12/13 17:11:32;;;;;;;0.00;0.00;;;;;;;;;;4937971;29;20403;-92
2023/12/13 17:13:58;;;;;;;0.08;0.08;;;;;;;;;;4935393;29;20061;-93
2023/12/13 17:16:24;;;;;;;0.00;0.00;;;;;;;;;;4931417;29;20064;-92
2023/12/13 17:18:50;;;;;;;0.00;0.00;;;;;;;;;;4935757;29;20028;-93
2023/12/13 17:21:16;;;;;;;0.00;0.00;;;;;;;;;;4954883;29;20063;-93
2023/12/13 17:23:42;;;;;;;0.00;0.00;;;;;;;;;;4930321;29;20024;-94
2023/12/13 17:26:08;;;;;;;0.10;0.10;;;;;;;;;;4935301;29;20123;-93
2023/12/13 17:28:34;;;;;;;0.00;0.00;;;;;;;;;;4931625;29;20039;-92
2023/12/13 17:31:00;;;;;;;0.00;0.00;;;;;;;;;;4936979;29;20039;-93
2023/12/13 17:33:26;;;;;;;0.10;0.10;;;;;;;;;;4928350;29;20033;-93
2023/12/13 17:35:52;;;;;;;0.00;0.00;;;;;;;;;;4933187;29;20043;-94
2023/12/13 17:38:18;;;;;;;0.00;0.00;;;;;;;;;;4928985;29;20040;-93
2023/12/13 17:40:44;;;;;;;0.10;0.10;;;;;;;;;;4934300;29;20031;-94
2023/12/13 17:43:10;;;;;;;0.00;0.00;;;9.00;99.90;;;;;;4932261;29;20027;-93
2023/12/13 17:45:38;;;;;;;0.00;0.00;;;;;;;;;;4932621;29;20032;-92
2023/12/13 17:48:05;;;;;;;0.00;0.00;;;;;;;;;;4929785;29;20072;-94
2023/12/13 17:50:31;;;;;;;0.00;0.00;;;;;;;;;;4925614;29;20046;-93
2023/12/13 17:52:57;;;;;;;0.03;0.03;;;;;;;;;;4931693;29;20099;-92
2023/12/13 17:55:23;;;;;;;0.00;0.00;;;;;;;;;;4935415;29;20119;-93
2023/12/13 17:57:49;;;;;;;0.00;0.00;;;;;;;;;;4931444;29;20020;-93
2023/12/13 18:00:15;;;;;;;0.00;0.00;;;;;;;;;;4932312;29;20023;-93
2023/12/13 18:02:41;;;;;;;0.00;0.00;;;;;;;;;;4933501;29;20053;-93
2023/12/13 18:05:09;;;;;;;0.00;0.00;;;;;;;;;;4933387;29;20036;-93
2023/12/13 18:07:35;;;;;;;0.03;0.03;;;;;;;;;;4930329;29;20036;-94
2023/12/13 18:10:04;;;;;;;0.10;0.10;;;;;;;;;;4934421;29;20040;-93
2023/12/13 18:12:29;;;;;;;0.00;0.00;;;;;;;;;;4934833;29;20028;-93
2023/12/13 18:14:57;;;;;;;0.10;0.10;;;;;;;;;;4930775;29;20056;-92
2023/12/13 18:17:23;;;;;;;0.00;0.00;;;;;;;;;;4931379;29;20032;-94
2023/12/13 18:19:49;;;;;;;0.10;0.10;;;;;;;;;;4930400;29;20032;-93
2023/12/13 18:22:15;;;;;;;0.10;0.10;;;;;;;;;;4930082;29;20075;-93
2023/12/13 18:24:41;;;;;;;0.10;0.10;;;;;;;;;;4932311;29;20040;-93
2023/12/13 18:27:06;;;;;;;0.10;0.10;;;;;;;;;;4932661;29;20030;-93
2023/12/13 18:29:32;;;;;;;0.10;0.10;;;;;;;;;;4929920;29;20008;-93
2023/12/13 18:31:58;;;;;;;0.00;0.00;;;;;;;;;;4935335;29;20063;-93
2023/12/13 18:34:24;;;;;;;0.00;0.00;;;;;;;;;;4936134;29;20032;-95
2023/12/13 18:36:50;;;;;;;0.00;0.00;;;;;;;;;;4938584;28;20024;-94
2023/12/13 18:39:17;;;;;;;0.10;0.10;;;;;;;;;;4939850;28;20495;-92
2023/12/13 18:41:43;;;;;;;0.00;0.00;;;;;;;;;;4928325;29;20091;-92
2023/12/13 18:44:09;;;;;;;0.10;0.10;;;;;;;;;;4929470;29;20012;-95
2023/12/13 18:46:36;;;;;;;0.03;0.03;;;;;;;;;;4928231;29;20027;-95
2023/12/13 18:49:02;;;;;;;0.00;0.00;;;;;;;;;;4934421;29;20032;-95
2023/12/13 18:51:28;;;;;;;0.00;0.00;;;;;;;;;;4930134;29;20036;-95
2023/12/13 18:53:54;;;;;;;0.10;0.10;;;;;;;;;;4938946;29;20092;-93
2023/12/13 18:56:20;;;;;;;0.10;0.10;;;;;;;;;;4938629;29;20020;-93
2023/12/13 18:58:46;;;;;;;0.00;0.00;;;;;;;;;;4941099;29;20087;-94
2023/12/13 19:01:12;;;;;;;0.10;0.10;;;;;;;;;;4935344;29;20053;-95
2023/12/13 19:03:38;;;;;;;0.10;0.10;;;;;;;;;;4932469;29;20050;-94
2023/12/13 19:06:04;;;;;;;0.00;0.00;;;;;;;;;;4935402;29;20092;-93
2023/12/13 19:08:30;;;;;;;0.10;0.10;;;;;;;;;;4944248;29;20036;-94
2023/12/13 19:10:56;;;;;;;0.10;0.10;;;;;;;;;;4940731;29;20009;-95
2023/12/13 19:13:22;;;;;;;0.00;0.00;;;;;;;;;;4939429;29;20036;-95
2023/12/13 19:15:48;;;;;;;0.00;0.00;;;8.10;99.90;;;;;;4940725;29;20092;-93
2023/12/13 19:18:16;;;;;;;0.10;0.10;;;;;;;;;;4959861;28;20035;-95
2023/12/13 19:20:42;;;;;;;0.10;0.10;;;;;;;;;;4937700;28;20096;-94
2023/12/13 19:23:08;;;;;;;0.10;0.10;;;;;;;;;;4934227;29;20028;-94
2023/12/13 19:25:34;;;;;;;0.10;0.10;;;;;;;;;;4934556;29;20084;-95
2023/12/13 19:28:02;;;;;;;0.10;0.10;;;;;;;;;;4938971;28;20012;-95
2023/12/13 19:30:28;;;;;;;0.08;0.08;;;;;;;;;;4935837;29;20055;-94
2023/12/13 19:32:54;;;;;;;0.10;0.10;;;;;;;;;;4945981;29;20040;-93
2023/12/13 19:35:20;;;;;;;0.10;0.10;;;;;;;;;;4944461;29;20036;-93
2023/12/13 19:37:46;;;;;;;0.00;0.00;;;;;;;;;;4946627;29;20028;-94
2023/12/13 19:40:12;;;;;;;0.10;0.10;;;;;;;;;;4942656;29;20021;-93
2023/12/13 19:42:38;;;;;;;0.00;0.00;;;;;;;;;;4938112;29;20036;-93
2023/12/13 19:45:05;;;;;;;0.03;0.03;;;8.00;99.90;;;;;;4941381;29;20233;-94
2023/12/13 19:47:31;;;;;;;0.00;0.00;;;;;;;;;;4933582;29;20095;-95
2023/12/13 19:49:57;;;;;;;0.10;0.10;;;;;;;;;;4933493;29;20032;-92
2023/12/13 19:52:23;;;;;;;0.10;0.10;;;;;;;;;;4929530;29;20032;-94
2023/12/13 19:54:49;;;;;;;0.10;0.10;;;;;;;;;;4930424;29;20008;-95
2023/12/13 19:57:15;;;;;;;0.00;0.00;;;;;;;;;;4922226;29;20484;-93
2023/12/13 19:59:40;;;;;;;0.10;0.10;;;;;;;;;;4931220;29;20035;-94
2023/12/13 20:02:08;;;;;;;0.10;0.10;;;;;;;;;;4942955;29;20024;-92
2023/12/13 20:04:34;;;;;;;0.10;0.10;;;;;;;;;;4927065;29;20200;-92
2023/12/13 20:06:59;;;;;;;0.10;0.10;;;;;;;;;;4928659;29;20472;-93
2023/12/13 20:09:25;;;;;;;0.00;0.00;;;;;;;;;;4927544;29;20052;-94
2023/12/13 20:11:51;;;;;;;0.10;0.10;;;;;;;;;;4930563;29;20036;-93
2023/12/13 20:14:17;;;;;;;0.00;0.00;;;;;;;;;;4939691;29;20035;-95
2023/12/13 20:16:43;;;;;;;0.10;0.10;;;;;;;;;;4941327;29;20031;-94
2023/12/13 20:19:09;;;;;;;0.10;0.10;;;;;;;;;;4939447;29;20055;-92
2023/12/13 20:21:35;;;;;;;0.10;0.10;;;;;;;;;;4940100;29;20024;-95
2023/12/13 20:24:01;;;;;;;0.10;0.10;;;;;;;;;;4937770;29;20123;-94
2023/12/13 20:26:27;;;;;;;0.10;0.10;;;;;;;;;;4952444;29;20047;-93
2023/12/13 20:28:53;;;;;;;0.10;0.10;;;;;;;;;;4938206;29;20039;-95
2023/12/13 20:31:19;;;;;;;0.10;0.10;;;;;;;;;;4941154;29;20031;-94
2023/12/13 20:33:45;;;;;;;0.10;0.10;;;;;;;;;;4936374;29;20071;-94
2023/12/13 20:36:12;;;;;;;0.10;0.10;;;;;;;;;;4930666;29;20060;-92
2023/12/13 20:38:38;;;;;;;0.10;0.10;;;;;;;;;;4922759;29;20028;-91